Hb102 — WDJ4627 — position and weather

sailwx.info

Track history (hours):
 
Tides and Currents Weather Stations Pressure Air Temp Water Temp Dewpoint Dewpoint Depression Visibility Wind Speed Wind Dir Waves Ship Positions

Hb102

Owner: HNY Ferry Fleet LLC, New York, NY. More information available from US FCC via Universal Licensing System and Coast Guard Vessel Documentation Center.

Last reported at 2018-Jul-20 00:30 UTC. Time now 2018-Jul-20 00:46 UTC.
Position N 40°45' W 073°57'.

; draft 2 m.

Type: Passenger vessel. MMSI: 367779550.

Date/timePositionNaut miles runAvg speedWind from/ knotsBaromVisibWave heightAir tempDewpointWater temp
2018-Jul-20 00:30N 40°45' W 073°57'4 7.5
2018-Jul-20 00:00N 40°42' W 074°00'4 7.3
2018-Jul-19 23:30N 40°45' W 073°57'0 0.4
2018-Jul-19 23:00N 40°45' W 073°57'3 6.9
2018-Jul-19 22:30N 40°42' W 074°00'4 8.0
2018-Jul-19 22:00N 40°45' W 073°57'1 1.2
2018-Jul-19 21:30N 40°45' W 073°57'3 6.9
2018-Jul-19 21:00N 40°42' W 074°00'3 5.9
2018-Jul-19 20:30N 40°45' W 073°58'2 3.9
2018-Jul-19 19:58N 40°46' W 073°56'3 6.4
2018-Jul-19 19:31N 40°44' W 073°58'1 2.3
2018-Jul-19 19:00N 40°45' W 073°58'2 3.0
2018-Jul-19 18:25N 40°46' W 073°57'4 8.8
2018-Jul-19 18:01N 40°43' W 073°58'2 3.7
2018-Jul-19 17:30N 40°45' W 073°58'1 2.2
2018-Jul-19 16:57N 40°45' W 073°57'3 7.0
2018-Jul-19 16:31N 40°43' W 073°59'2 4.2
2018-Jul-19 15:59N 40°45' W 073°58'1 2.1
2018-Jul-19 15:24N 40°46' W 073°57'3 7.9
2018-Jul-19 15:01N 40°43' W 073°59'4 3.6
2018-Jul-19 13:55N 40°46' W 073°56'2 4.4
2018-Jul-19 13:30N 40°45' W 073°58'3 6.5
2018-Jul-19 13:01N 40°42' W 074°00'4 8.3
2018-Jul-19 12:30N 40°46' W 073°57'1 2.5
2018-Jul-19 12:00N 40°45' W 073°58'2 3.5
2018-Jul-19 11:30N 40°43' W 073°58'3 5.4
2018-Jul-19 11:00N 40°46' W 073°57'4 7.1
2018-Jul-19 10:30N 40°42' W 073°58'0 0.0
2018-Jul-19 09:59N 40°42' W 073°58'0 0.0
2018-Jul-19 02:37N 40°42' W 073°58'0 2.6
2018-Jul-19 02:30N 40°42' W 073°59'1 2.0
2018-Jul-19 02:00N 40°43' W 073°58'2 4.3
2018-Jul-19 01:30N 40°42' W 074°00'0 0.9
2018-Jul-19 01:00N 40°42' W 073°60'2 4.5
2018-Jul-19 00:31N 40°44' W 073°58'1 1.4
2018-Jul-19 00:00N 40°43' W 073°58'2 4.3
2018-Jul-18 23:30N 40°42' W 074°00'2 4.3
2018-Jul-18 23:01N 40°43' W 073°58'1 1.9
2018-Jul-18 22:30N 40°44' W 073°58'3 5.3
2018-Jul-18 22:00N 40°42' W 074°00'1 2.2
2018-Jul-18 21:31N 40°42' W 073°59'2 4.4
2018-Jul-18 21:00N 40°45' W 073°58'2 4.2
2018-Jul-18 20:30N 40°43' W 073°58'2 3.3
2018-Jul-18 20:00N 40°42' W 074°00'2 4.3
2018-Jul-18 19:30N 40°43' W 073°58'1 2.2
2018-Jul-18 19:00N 40°44' W 073°58'3 5.1
2018-Jul-18 18:30N 40°42' W 073°60'1 1.6
2018-Jul-18 18:00N 40°42' W 073°59'1 2.1
2018-Jul-18 17:30N 40°43' W 073°58'1 2.5
2018-Jul-18 17:01N 40°45' W 073°58'3 5.5
2018-Jul-18 16:30N 40°42' W 073°60'0 0.9
2018-Jul-18 15:59N 40°42' W 074°00'2 4.5
2018-Jul-18 15:31N 40°43' W 073°58'1 2.5
2018-Jul-18 15:00N 40°45' W 073°58'3 5.3
2018-Jul-18 14:30N 40°42' W 073°60'2 2.1
2018-Jul-18 13:31N 40°44' W 073°58'1 1.4
2018-Jul-18 13:00N 40°43' W 073°58'2 4.3
2018-Jul-18 12:30N 40°42' W 074°00'2 4.3
2018-Jul-18 12:00N 40°43' W 073°58'1 2.5
2018-Jul-18 11:30N 40°45' W 073°58'3 2.5
2018-Jul-18 10:30N 40°42' W 073°58'0 0.0
2018-Jul-18 10:00N 40°42' W 073°58'0 0.0
2018-Jul-18 02:30N 40°42' W 073°58'1 3.0
2018-Jul-18 02:00N 40°42' W 074°00'2 5.0
2018-Jul-18 01:30N 40°44' W 073°58'0 0.6
2018-Jul-18 01:00N 40°44' W 073°58'2 4.7
2018-Jul-18 00:30N 40°42' W 074°00'0 0.7
2018-Jul-18 00:01N 40°42' W 073°60'2 4.5
2018-Jul-17 23:30N 40°44' W 073°58'1 1.3
2018-Jul-17 23:00N 40°43' W 073°58'2 4.1
2018-Jul-17 22:29N 40°42' W 074°00'2 4.4
2018-Jul-17 22:00N 40°43' W 073°58'1 2.5
2018-Jul-17 21:30N 40°45' W 073°58'3 5.4
2018-Jul-17 21:01N 40°42' W 073°60'1 2.2
2018-Jul-17 20:30N 40°43' W 073°58'2 4.4
2018-Jul-17 20:00N 40°45' W 073°58'1 1.1
2018-Jul-17 19:31N 40°45' W 073°57'1 2.2
2018-Jul-17 19:00N 40°44' W 073°58'2 3.2
2018-Jul-17 18:27N 40°42' W 073°58'0 0.0
2018-Jul-17 15:17N 40°42' W 073°58'311.3
2018-Jul-17 15:00N 40°43' W 074°02'0 0.1
2018-Jul-17 14:30N 40°43' W 074°02'0 0.1
2018-Jul-17 14:00N 40°43' W 074°03'3 5.3
2018-Jul-17 13:30N 40°42' W 073°59'1 2.3
2018-Jul-17 12:59N 40°43' W 073°58'1 2.7
2018-Jul-17 12:30N 40°45' W 073°58'3 5.3
2018-Jul-17 12:00N 40°42' W 073°60'1 1.3
2018-Jul-17 11:30N 40°42' W 073°59'2 4.5
2018-Jul-17 11:00N 40°45' W 073°58'3 0.2
2018-Jul-16 21:51N 40°42' W 073°58'3 8.5
2018-Jul-16 21:31N 40°44' W 074°01'  
2018-Jul-10 10:18N 40°47' W 073°59'516.9
2018-Jul-10 10:00N 40°42' W 074°00'1 0.2
2018-Jul-10 03:12N 40°42' W 073°58'0 0.8
2018-Jul-10 03:00N 40°42' W 073°58'5 9.8
2018-Jul-10 02:30N 40°38' W 074°02'4 7.1
2018-Jul-10 02:00N 40°42' W 074°00'0 0.0
2018-Jul-10 01:30N 40°42' W 074°00'3 6.9
2018-Jul-10 01:01N 40°39' W 074°02'4 7.3
2018-Jul-10 00:31N 40°42' W 074°00'  
Track history (hours):
 
Tides and Currents Weather Stations Pressure Air Temp Water Temp Dewpoint Dewpoint Depression Visibility Wind Speed Wind Dir Waves Ship Positions

Hb102

Owner: HNY Ferry Fleet LLC, New York, NY. More information available from US FCC via Universal Licensing System and Coast Guard Vessel Documentation Center.

Last reported at 2018-Jul-20 00:30 UTC. Time now 2018-Jul-20 00:46 UTC.
Position N 40°45' W 073°57'.

; draft 2 m.

Type: Passenger vessel. MMSI: 367779550.

Date/timePositionNaut miles runAvg speedWind from/ knotsBaromVisibWave heightAir tempDewpointWater temp
2018-Jul-20 00:30N 40°45' W 073°57'4 7.5
2018-Jul-20 00:00N 40°42' W 074°00'4 7.3
2018-Jul-19 23:30N 40°45' W 073°57'0 0.4
2018-Jul-19 23:00N 40°45' W 073°57'3 6.9
2018-Jul-19 22:30N 40°42' W 074°00'4 8.0
2018-Jul-19 22:00N 40°45' W 073°57'1 1.2
2018-Jul-19 21:30N 40°45' W 073°57'3 6.9
2018-Jul-19 21:00N 40°42' W 074°00'3 5.9
2018-Jul-19 20:30N 40°45' W 073°58'2 3.9
2018-Jul-19 19:58N 40°46' W 073°56'3 6.4
2018-Jul-19 19:31N 40°44' W 073°58'1 2.3
2018-Jul-19 19:00N 40°45' W 073°58'2 3.0
2018-Jul-19 18:25N 40°46' W 073°57'4 8.8
2018-Jul-19 18:01N 40°43' W 073°58'2 3.7
2018-Jul-19 17:30N 40°45' W 073°58'1 2.2
2018-Jul-19 16:57N 40°45' W 073°57'3 7.0
2018-Jul-19 16:31N 40°43' W 073°59'2 4.2
2018-Jul-19 15:59N 40°45' W 073°58'1 2.1
2018-Jul-19 15:24N 40°46' W 073°57'3 7.9
2018-Jul-19 15:01N 40°43' W 073°59'4 3.6
2018-Jul-19 13:55N 40°46' W 073°56'2 4.4
2018-Jul-19 13:30N 40°45' W 073°58'3 6.5
2018-Jul-19 13:01N 40°42' W 074°00'4 8.3
2018-Jul-19 12:30N 40°46' W 073°57'1 2.5
2018-Jul-19 12:00N 40°45' W 073°58'2 3.5
2018-Jul-19 11:30N 40°43' W 073°58'3 5.4
2018-Jul-19 11:00N 40°46' W 073°57'4 7.1
2018-Jul-19 10:30N 40°42' W 073°58'0 0.0
2018-Jul-19 09:59N 40°42' W 073°58'0 0.0
2018-Jul-19 02:37N 40°42' W 073°58'0 2.6
2018-Jul-19 02:30N 40°42' W 073°59'1 2.0
2018-Jul-19 02:00N 40°43' W 073°58'2 4.3
2018-Jul-19 01:30N 40°42' W 074°00'0 0.9
2018-Jul-19 01:00N 40°42' W 073°60'2 4.5
2018-Jul-19 00:31N 40°44' W 073°58'1 1.4
2018-Jul-19 00:00N 40°43' W 073°58'2 4.3
2018-Jul-18 23:30N 40°42' W 074°00'2 4.3
2018-Jul-18 23:01N 40°43' W 073°58'1 1.9
2018-Jul-18 22:30N 40°44' W 073°58'3 5.3
2018-Jul-18 22:00N 40°42' W 074°00'1 2.2
2018-Jul-18 21:31N 40°42' W 073°59'2 4.4
2018-Jul-18 21:00N 40°45' W 073°58'2 4.2
2018-Jul-18 20:30N 40°43' W 073°58'2 3.3
2018-Jul-18 20:00N 40°42' W 074°00'2 4.3
2018-Jul-18 19:30N 40°43' W 073°58'1 2.2
2018-Jul-18 19:00N 40°44' W 073°58'3 5.1
2018-Jul-18 18:30N 40°42' W 073°60'1 1.6
2018-Jul-18 18:00N 40°42' W 073°59'1 2.1
2018-Jul-18 17:30N 40°43' W 073°58'1 2.5
2018-Jul-18 17:01N 40°45' W 073°58'3 5.5
2018-Jul-18 16:30N 40°42' W 073°60'0 0.9
2018-Jul-18 15:59N 40°42' W 074°00'2 4.5
2018-Jul-18 15:31N 40°43' W 073°58'1 2.5
2018-Jul-18 15:00N 40°45' W 073°58'3 5.3
2018-Jul-18 14:30N 40°42' W 073°60'2 2.1
2018-Jul-18 13:31N 40°44' W 073°58'1 1.4
2018-Jul-18 13:00N 40°43' W 073°58'2 4.3
2018-Jul-18 12:30N 40°42' W 074°00'2 4.3
2018-Jul-18 12:00N 40°43' W 073°58'1 2.5
2018-Jul-18 11:30N 40°45' W 073°58'3 2.5
2018-Jul-18 10:30N 40°42' W 073°58'0 0.0
2018-Jul-18 10:00N 40°42' W 073°58'0 0.0
2018-Jul-18 02:30N 40°42' W 073°58'1 3.0
2018-Jul-18 02:00N 40°42' W 074°00'2 5.0
2018-Jul-18 01:30N 40°44' W 073°58'0 0.6
2018-Jul-18 01:00N 40°44' W 073°58'2 4.7
2018-Jul-18 00:30N 40°42' W 074°00'0 0.7
2018-Jul-18 00:01N 40°42' W 073°60'2 4.5
2018-Jul-17 23:30N 40°44' W 073°58'1 1.3
2018-Jul-17 23:00N 40°43' W 073°58'2 4.1
2018-Jul-17 22:29N 40°42' W 074°00'2 4.4
2018-Jul-17 22:00N 40°43' W 073°58'1 2.5
2018-Jul-17 21:30N 40°45' W 073°58'3 5.4
2018-Jul-17 21:01N 40°42' W 073°60'1 2.2
2018-Jul-17 20:30N 40°43' W 073°58'2 4.4
2018-Jul-17 20:00N 40°45' W 073°58'1 1.1
2018-Jul-17 19:31N 40°45' W 073°57'1 2.2
2018-Jul-17 19:00N 40°44' W 073°58'2 3.2
2018-Jul-17 18:27N 40°42' W 073°58'0 0.0
2018-Jul-17 15:17N 40°42' W 073°58'311.3
2018-Jul-17 15:00N 40°43' W 074°02'0 0.1
2018-Jul-17 14:30N 40°43' W 074°02'0 0.1
2018-Jul-17 14:00N 40°43' W 074°03'3 5.3
2018-Jul-17 13:30N 40°42' W 073°59'1 2.3
2018-Jul-17 12:59N 40°43' W 073°58'1 2.7
2018-Jul-17 12:30N 40°45' W 073°58'3 5.3
2018-Jul-17 12:00N 40°42' W 073°60'1 1.3
2018-Jul-17 11:30N 40°42' W 073°59'2 4.5
2018-Jul-17 11:00N 40°45' W 073°58'3 0.2
2018-Jul-16 21:51N 40°42' W 073°58'3 8.5
2018-Jul-16 21:31N 40°44' W 074°01'  
2018-Jul-10 10:18N 40°47' W 073°59'516.9
2018-Jul-10 10:00N 40°42' W 074°00'1 0.2
2018-Jul-10 03:12N 40°42' W 073°58'0 0.8
2018-Jul-10 03:00N 40°42' W 073°58'5 9.8
2018-Jul-10 02:30N 40°38' W 074°02'4 7.1
2018-Jul-10 02:00N 40°42' W 074°00'0 0.0
2018-Jul-10 01:30N 40°42' W 074°00'3 6.9
2018-Jul-10 01:01N 40°39' W 074°02'4 7.3
2018-Jul-10 00:31N 40°42' W 074°00'  

Dump ship's entire track history